Inicio METAR Ruta Wind Satelite

Informe Meteorológico

Fecha: 2020/11/30 14:55:56 Local
2020.11.30 19:55 UTC


Estado: VENCIDO
Operación:
Mitu, Colombia (SKMU) 01-08N 070-03W
Nov 11, 2020 - 06:00 AM EST / 2020.11.11 1100 UTC
Wind: Calm:0
Visibility: less than 1 mile:0
Sky conditions: overcast
Weather: fog
Temperature: 73 F (23 C)
Dew Point: 73 F (23 C)
Relative Humidity: 100%
Pressure (altimeter): 29.84 in. Hg (1010 hPa)
ob: SKMU 111100Z 00000KT 0100 FG OVC001 23/23 A2984 RMK/ AD BLW MNM MET
cycle: 11